sensor_id;sensor_type;location;lat;lon;timestamp;P1;durP1;ratioP1;P2;durP2;ratioP2
2762;SDS011;1389;51.490;7.338;2023-06-22T00:01:58;167.80;;;15.30;;
2762;SDS011;1389;51.490;7.338;2023-06-22T00:04:24;167.57;;;15.50;;
2762;SDS011;1389;51.490;7.338;2023-06-22T00:06:51;166.30;;;15.30;;
2762;SDS011;1389;51.490;7.338;2023-06-22T00:09:17;166.30;;;15.20;;
2762;SDS011;1389;51.490;7.338;2023-06-22T00:11:44;166.50;;;15.30;;
2762;SDS011;1389;51.490;7.338;2023-06-22T00:14:10;166.50;;;15.30;;
2762;SDS011;1389;51.490;7.338;2023-06-22T00:16:36;166.20;;;15.30;;
2762;SDS011;1389;51.490;7.338;2023-06-22T00:19:03;166.40;;;15.30;;
2762;SDS011;1389;51.490;7.338;2023-06-22T00:21:29;166.60;;;15.40;;
2762;SDS011;1389;51.490;7.338;2023-06-22T00:23:56;166.00;;;15.10;;
2762;SDS011;1389;51.490;7.338;2023-06-22T00:26:22;166.48;;;15.40;;
2762;SDS011;1389;51.490;7.338;2023-06-22T00:28:50;167.17;;;15.50;;
2762;SDS011;1389;51.490;7.338;2023-06-22T00:31:16;167.13;;;15.40;;
2762;SDS011;1389;51.490;7.338;2023-06-22T00:33:43;167.38;;;15.20;;
2762;SDS011;1389;51.490;7.338;2023-06-22T00:36:09;167.70;;;15.40;;
2762;SDS011;1389;51.490;7.338;2023-06-22T00:38:38;168.10;;;15.50;;
2762;SDS011;1389;51.490;7.338;2023-06-22T00:41:05;168.20;;;15.50;;
2762;SDS011;1389;51.490;7.338;2023-06-22T00:43:32;168.80;;;15.60;;
2762;SDS011;1389;51.490;7.338;2023-06-22T00:45:58;169.00;;;15.60;;
2762;SDS011;1389;51.490;7.338;2023-06-22T00:48:25;168.70;;;15.60;;
2762;SDS011;1389;51.490;7.338;2023-06-22T00:50:51;168.80;;;15.52;;
2762;SDS011;1389;51.490;7.338;2023-06-22T00:53:21;168.90;;;15.50;;
2762;SDS011;1389;51.490;7.338;2023-06-22T00:55:48;168.70;;;15.50;;
2762;SDS011;1389;51.490;7.338;2023-06-22T00:58:18;168.60;;;15.60;;
2762;SDS011;1389;51.490;7.338;2023-06-22T01:00:47;168.70;;;15.60;;
2762;SDS011;1389;51.490;7.338;2023-06-22T01:03:14;169.00;;;15.60;;
2762;SDS011;1389;51.490;7.338;2023-06-22T01:05:42;169.30;;;15.80;;
2762;SDS011;1389;51.490;7.338;2023-06-22T01:10:51;169.60;;;15.70;;
2762;SDS011;1389;51.490;7.338;2023-06-22T01:15:53;169.93;;;16.00;;
2762;SDS011;1389;51.490;7.338;2023-06-22T01:18:22;170.10;;;15.80;;
2762;SDS011;1389;51.490;7.338;2023-06-22T01:20:52;170.75;;;15.90;;
2762;SDS011;1389;51.490;7.338;2023-06-22T01:31:03;171.70;;;16.10;;
2762;SDS011;1389;51.490;7.338;2023-06-22T01:33:31;171.70;;;16.10;;
2762;SDS011;1389;51.490;7.338;2023-06-22T01:35:59;172.10;;;16.10;;
2762;SDS011;1389;51.490;7.338;2023-06-22T01:38:26;172.30;;;16.10;;
2762;SDS011;1389;51.490;7.338;2023-06-22T01:40:53;172.80;;;16.20;;
2762;SDS011;1389;51.490;7.338;2023-06-22T01:43:20;172.80;;;16.27;;
2762;SDS011;1389;51.490;7.338;2023-06-22T01:45:48;173.45;;;16.20;;
2762;SDS011;1389;51.490;7.338;2023-06-22T01:48:15;173.70;;;16.20;;
2762;SDS011;1389;51.490;7.338;2023-06-22T01:50:42;174.20;;;16.40;;
2762;SDS011;1389;51.490;7.338;2023-06-22T01:53:08;174.70;;;16.50;;
2762;SDS011;1389;51.490;7.338;2023-06-22T01:55:35;174.50;;;16.40;;
2762;SDS011;1389;51.490;7.338;2023-06-22T01:58:01;174.80;;;16.35;;
2762;SDS011;1389;51.490;7.338;2023-06-22T02:00:28;175.60;;;16.65;;
2762;SDS011;1389;51.490;7.338;2023-06-22T02:03:40;175.60;;;16.50;;
2762;SDS011;1389;51.490;7.338;2023-06-22T02:05:52;176.00;;;16.70;;
2762;SDS011;1389;51.490;7.338;2023-06-22T02:08:22;175.90;;;16.70;;
2762;SDS011;1389;51.490;7.338;2023-06-22T02:10:50;175.60;;;16.48;;
2762;SDS011;1389;51.490;7.338;2023-06-22T02:13:17;175.80;;;16.60;;
2762;SDS011;1389;51.490;7.338;2023-06-22T02:15:46;176.00;;;16.53;;
2762;SDS011;1389;51.490;7.338;2023-06-22T02:18:13;176.50;;;16.70;;
2762;SDS011;1389;51.490;7.338;2023-06-22T02:20:40;176.50;;;16.70;;
2762;SDS011;1389;51.490;7.338;2023-06-22T02:23:06;176.60;;;16.70;;
2762;SDS011;1389;51.490;7.338;2023-06-22T02:25:33;177.40;;;16.92;;
2762;SDS011;1389;51.490;7.338;2023-06-22T02:28:00;177.60;;;16.88;;
2762;SDS011;1389;51.490;7.338;2023-06-22T02:30:26;178.02;;;16.90;;
2762;SDS011;1389;51.490;7.338;2023-06-22T02:32:52;178.50;;;17.00;;
2762;SDS011;1389;51.490;7.338;2023-06-22T02:35:27;178.90;;;17.10;;
2762;SDS011;1389;51.490;7.338;2023-06-22T02:37:58;178.90;;;17.00;;
2762;SDS011;1389;51.490;7.338;2023-06-22T02:40:24;179.50;;;17.20;;
2762;SDS011;1389;51.490;7.338;2023-06-22T02:42:51;179.95;;;17.17;;
2762;SDS011;1389;51.490;7.338;2023-06-22T02:45:17;180.70;;;17.30;;
2762;SDS011;1389;51.490;7.338;2023-06-22T02:47:44;180.90;;;17.30;;
2762;SDS011;1389;51.490;7.338;2023-06-22T02:50:10;180.90;;;17.35;;
2762;SDS011;1389;51.490;7.338;2023-06-22T02:52:37;181.10;;;17.40;;
2762;SDS011;1389;51.490;7.338;2023-06-22T02:55:04;181.00;;;17.40;;
2762;SDS011;1389;51.490;7.338;2023-06-22T02:57:32;181.45;;;17.58;;
2762;SDS011;1389;51.490;7.338;2023-06-22T02:59:59;181.50;;;17.50;;
2762;SDS011;1389;51.490;7.338;2023-06-22T03:02:25;181.70;;;17.50;;
2762;SDS011;1389;51.490;7.338;2023-06-22T03:04:53;182.30;;;17.60;;
2762;SDS011;1389;51.490;7.338;2023-06-22T03:07:20;182.50;;;17.60;;
2762;SDS011;1389;51.490;7.338;2023-06-22T03:09:46;182.90;;;17.60;;
2762;SDS011;1389;51.490;7.338;2023-06-22T03:12:12;182.90;;;17.60;;
2762;SDS011;1389;51.490;7.338;2023-06-22T03:14:39;183.60;;;17.80;;
2762;SDS011;1389;51.490;7.338;2023-06-22T03:17:05;182.40;;;17.60;;
2762;SDS011;1389;51.490;7.338;2023-06-22T03:19:32;185.20;;;17.80;;
2762;SDS011;1389;51.490;7.338;2023-06-22T03:21:59;185.30;;;17.90;;
2762;SDS011;1389;51.490;7.338;2023-06-22T03:24:25;186.50;;;18.00;;
2762;SDS011;1389;51.490;7.338;2023-06-22T03:26:54;185.50;;;17.90;;
2762;SDS011;1389;51.490;7.338;2023-06-22T03:29:22;184.63;;;17.90;;
2762;SDS011;1389;51.490;7.338;2023-06-22T03:31:49;187.10;;;17.90;;
2762;SDS011;1389;51.490;7.338;2023-06-22T03:34:15;186.90;;;17.90;;
2762;SDS011;1389;51.490;7.338;2023-06-22T03:36:41;187.30;;;18.10;;
2762;SDS011;1389;51.490;7.338;2023-06-22T03:39:10;187.60;;;18.00;;
2762;SDS011;1389;51.490;7.338;2023-06-22T03:41:36;188.10;;;18.10;;
2762;SDS011;1389;51.490;7.338;2023-06-22T03:44:03;187.88;;;18.08;;
2762;SDS011;1389;51.490;7.338;2023-06-22T03:46:30;187.75;;;18.00;;
2762;SDS011;1389;51.490;7.338;2023-06-22T03:48:56;188.00;;;18.10;;
2762;SDS011;1389;51.490;7.338;2023-06-22T03:51:23;188.90;;;18.20;;
2762;SDS011;1389;51.490;7.338;2023-06-22T03:53:49;189.20;;;18.13;;
2762;SDS011;1389;51.490;7.338;2023-06-22T03:56:16;189.95;;;18.20;;
2762;SDS011;1389;51.490;7.338;2023-06-22T03:58:45;191.20;;;18.50;;
2762;SDS011;1389;51.490;7.338;2023-06-22T04:01:12;191.40;;;18.40;;
2762;SDS011;1389;51.490;7.338;2023-06-22T04:03:38;192.70;;;18.60;;
2762;SDS011;1389;51.490;7.338;2023-06-22T04:06:06;193.30;;;18.70;;
2762;SDS011;1389;51.490;7.338;2023-06-22T04:08:33;193.70;;;18.70;;
2762;SDS011;1389;51.490;7.338;2023-06-22T04:10:59;194.40;;;18.80;;
2762;SDS011;1389;51.490;7.338;2023-06-22T04:13:26;194.10;;;18.70;;
2762;SDS011;1389;51.490;7.338;2023-06-22T04:15:52;195.10;;;18.90;;
2762;SDS011;1389;51.490;7.338;2023-06-22T04:18:19;195.20;;;18.90;;
2762;SDS011;1389;51.490;7.338;2023-06-22T04:20:45;195.17;;;18.90;;
2762;SDS011;1389;51.490;7.338;2023-06-22T04:23:12;195.30;;;18.90;;
2762;SDS011;1389;51.490;7.338;2023-06-22T04:25:39;195.70;;;18.90;;
2762;SDS011;1389;51.490;7.338;2023-06-22T04:28:05;196.00;;;19.00;;
2762;SDS011;1389;51.490;7.338;2023-06-22T04:30:38;195.60;;;18.90;;
2762;SDS011;1389;51.490;7.338;2023-06-22T04:33:12;195.40;;;18.90;;
2762;SDS011;1389;51.490;7.338;2023-06-22T04:35:39;195.90;;;19.00;;
2762;SDS011;1389;51.490;7.338;2023-06-22T04:38:08;196.90;;;19.10;;
2762;SDS011;1389;51.490;7.338;2023-06-22T04:40:34;196.80;;;19.10;;
2762;SDS011;1389;51.490;7.338;2023-06-22T04:43:01;196.90;;;19.10;;
2762;SDS011;1389;51.490;7.338;2023-06-22T04:45:28;197.60;;;19.20;;
2762;SDS011;1389;51.490;7.338;2023-06-22T04:47:55;197.70;;;19.20;;
2762;SDS011;1389;51.490;7.338;2023-06-22T04:50:21;198.30;;;19.30;;
2762;SDS011;1389;51.490;7.338;2023-06-22T04:52:49;197.70;;;19.20;;
2762;SDS011;1389;51.490;7.338;2023-06-22T04:55:16;197.60;;;19.20;;
2762;SDS011;1389;51.490;7.338;2023-06-22T04:57:44;197.23;;;19.17;;
2762;SDS011;1389;51.490;7.338;2023-06-22T05:00:17;197.60;;;19.13;;
2762;SDS011;1389;51.490;7.338;2023-06-22T05:02:45;197.30;;;19.20;;
2762;SDS011;1389;51.490;7.338;2023-06-22T05:05:12;197.30;;;19.10;;
2762;SDS011;1389;51.490;7.338;2023-06-22T05:07:42;197.40;;;19.10;;
2762;SDS011;1389;51.490;7.338;2023-06-22T05:10:09;197.40;;;19.10;;
2762;SDS011;1389;51.490;7.338;2023-06-22T05:12:37;197.30;;;19.10;;
2762;SDS011;1389;51.490;7.338;2023-06-22T05:15:03;197.80;;;19.20;;
2762;SDS011;1389;51.490;7.338;2023-06-22T05:17:30;198.10;;;19.30;;
2762;SDS011;1389;51.490;7.338;2023-06-22T05:19:56;197.90;;;19.20;;
2762;SDS011;1389;51.490;7.338;2023-06-22T05:22:22;197.90;;;19.10;;
2762;SDS011;1389;51.490;7.338;2023-06-22T05:24:49;198.80;;;19.40;;
2762;SDS011;1389;51.490;7.338;2023-06-22T05:27:15;199.30;;;19.40;;
2762;SDS011;1389;51.490;7.338;2023-06-22T05:29:42;199.00;;;19.40;;
2762;SDS011;1389;51.490;7.338;2023-06-22T05:32:08;198.90;;;19.40;;
2762;SDS011;1389;51.490;7.338;2023-06-22T05:34:34;198.70;;;19.30;;
2762;SDS011;1389;51.490;7.338;2023-06-22T05:37:02;198.90;;;19.38;;
2762;SDS011;1389;51.490;7.338;2023-06-22T05:39:28;198.68;;;19.40;;
2762;SDS011;1389;51.490;7.338;2023-06-22T05:41:55;198.10;;;19.40;;
2762;SDS011;1389;51.490;7.338;2023-06-22T05:44:21;197.00;;;19.20;;
2762;SDS011;1389;51.490;7.338;2023-06-22T05:46:47;195.93;;;19.00;;
2762;SDS011;1389;51.490;7.338;2023-06-22T05:49:14;196.10;;;19.05;;
2762;SDS011;1389;51.490;7.338;2023-06-22T05:51:40;194.50;;;18.80;;
2762;SDS011;1389;51.490;7.338;2023-06-22T05:54:07;194.80;;;19.00;;
2762;SDS011;1389;51.490;7.338;2023-06-22T05:56:34;194.10;;;18.90;;
2762;SDS011;1389;51.490;7.338;2023-06-22T05:59:00;194.20;;;18.90;;
2762;SDS011;1389;51.490;7.338;2023-06-22T06:01:27;193.32;;;18.80;;
2762;SDS011;1389;51.490;7.338;2023-06-22T06:03:53;193.60;;;18.80;;
2762;SDS011;1389;51.490;7.338;2023-06-22T06:06:19;193.88;;;18.80;;
2762;SDS011;1389;51.490;7.338;2023-06-22T06:08:46;193.60;;;18.70;;
2762;SDS011;1389;51.490;7.338;2023-06-22T06:11:13;192.77;;;18.50;;
2762;SDS011;1389;51.490;7.338;2023-06-22T06:13:39;191.40;;;18.40;;
2762;SDS011;1389;51.490;7.338;2023-06-22T06:16:05;189.70;;;18.20;;
2762;SDS011;1389;51.490;7.338;2023-06-22T06:18:32;189.10;;;18.07;;
2762;SDS011;1389;51.490;7.338;2023-06-22T06:20:58;189.10;;;18.00;;
2762;SDS011;1389;51.490;7.338;2023-06-22T06:23:24;189.05;;;18.20;;
2762;SDS011;1389;51.490;7.338;2023-06-22T06:25:51;188.30;;;18.00;;
2762;SDS011;1389;51.490;7.338;2023-06-22T06:28:18;188.20;;;17.90;;
2762;SDS011;1389;51.490;7.338;2023-06-22T06:30:44;187.70;;;18.00;;
2762;SDS011;1389;51.490;7.338;2023-06-22T06:33:12;187.30;;;17.90;;
2762;SDS011;1389;51.490;7.338;2023-06-22T06:35:39;187.10;;;17.90;;
2762;SDS011;1389;51.490;7.338;2023-06-22T06:38:05;186.40;;;17.80;;
2762;SDS011;1389;51.490;7.338;2023-06-22T06:40:32;185.00;;;17.50;;
2762;SDS011;1389;51.490;7.338;2023-06-22T06:42:58;184.70;;;17.70;;
2762;SDS011;1389;51.490;7.338;2023-06-22T06:45:26;184.70;;;17.70;;
2762;SDS011;1389;51.490;7.338;2023-06-22T06:47:53;185.00;;;17.58;;
2762;SDS011;1389;51.490;7.338;2023-06-22T06:50:20;184.80;;;17.50;;
2762;SDS011;1389;51.490;7.338;2023-06-22T06:52:46;185.07;;;17.50;;
2762;SDS011;1389;51.490;7.338;2023-06-22T06:55:13;185.60;;;17.60;;
2762;SDS011;1389;51.490;7.338;2023-06-22T06:57:39;185.30;;;17.60;;
2762;SDS011;1389;51.490;7.338;2023-06-22T07:00:07;184.90;;;17.60;;
2762;SDS011;1389;51.490;7.338;2023-06-22T07:02:40;184.80;;;17.60;;
2762;SDS011;1389;51.490;7.338;2023-06-22T07:05:07;184.70;;;17.50;;
2762;SDS011;1389;51.490;7.338;2023-06-22T07:07:33;183.98;;;17.40;;
2762;SDS011;1389;51.490;7.338;2023-06-22T07:10:00;183.40;;;17.40;;
2762;SDS011;1389;51.490;7.338;2023-06-22T07:12:26;183.50;;;17.40;;
2762;SDS011;1389;51.490;7.338;2023-06-22T07:14:53;183.98;;;17.50;;
2762;SDS011;1389;51.490;7.338;2023-06-22T07:17:19;184.90;;;17.50;;
2762;SDS011;1389;51.490;7.338;2023-06-22T07:19:45;186.53;;;17.73;;
2762;SDS011;1389;51.490;7.338;2023-06-22T07:22:12;187.50;;;17.90;;
2762;SDS011;1389;51.490;7.338;2023-06-22T07:24:38;189.20;;;18.10;;
2762;SDS011;1389;51.490;7.338;2023-06-22T07:27:04;190.40;;;18.10;;
2762;SDS011;1389;51.490;7.338;2023-06-22T07:29:32;191.00;;;18.30;;
2762;SDS011;1389;51.490;7.338;2023-06-22T07:31:58;191.50;;;18.30;;
2762;SDS011;1389;51.490;7.338;2023-06-22T07:34:26;191.70;;;18.30;;
2762;SDS011;1389;51.490;7.338;2023-06-22T07:36:52;191.95;;;18.40;;
2762;SDS011;1389;51.490;7.338;2023-06-22T07:39:18;193.30;;;18.60;;
2762;SDS011;1389;51.490;7.338;2023-06-22T07:41:51;193.90;;;18.80;;
2762;SDS011;1389;51.490;7.338;2023-06-22T07:44:17;198.57;;;19.40;;
2762;SDS011;1389;51.490;7.338;2023-06-22T07:46:43;202.70;;;20.00;;
2762;SDS011;1389;51.490;7.338;2023-06-22T07:49:10;205.20;;;20.20;;
2762;SDS011;1389;51.490;7.338;2023-06-22T07:51:36;207.30;;;20.40;;
2762;SDS011;1389;51.490;7.338;2023-06-22T07:54:02;208.80;;;20.50;;
2762;SDS011;1389;51.490;7.338;2023-06-22T07:56:29;209.10;;;20.60;;
2762;SDS011;1389;51.490;7.338;2023-06-22T07:58:55;208.10;;;20.60;;
2762;SDS011;1389;51.490;7.338;2023-06-22T08:01:23;205.07;;;20.50;;
2762;SDS011;1389;51.490;7.338;2023-06-22T08:03:50;199.57;;;20.20;;
2762;SDS011;1389;51.490;7.338;2023-06-22T08:06:16;196.13;;;20.10;;
2762;SDS011;1389;51.490;7.338;2023-06-22T08:08:43;193.20;;;19.90;;
2762;SDS011;1389;51.490;7.338;2023-06-22T08:11:13;190.80;;;19.90;;
2762;SDS011;1389;51.490;7.338;2023-06-22T08:13:39;188.57;;;19.80;;
2762;SDS011;1389;51.490;7.338;2023-06-22T08:16:05;186.80;;;19.70;;
2762;SDS011;1389;51.490;7.338;2023-06-22T08:18:33;185.35;;;19.70;;
2762;SDS011;1389;51.490;7.338;2023-06-22T08:20:59;183.90;;;19.60;;
2762;SDS011;1389;51.490;7.338;2023-06-22T08:23:25;182.30;;;19.60;;
2762;SDS011;1389;51.490;7.338;2023-06-22T08:25:52;181.30;;;19.60;;
2762;SDS011;1389;51.490;7.338;2023-06-22T08:28:18;180.30;;;19.60;;
2762;SDS011;1389;51.490;7.338;2023-06-22T08:30:44;178.57;;;19.50;;
2762;SDS011;1389;51.490;7.338;2023-06-22T08:33:11;178.30;;;19.60;;
2762;SDS011;1389;51.490;7.338;2023-06-22T08:35:38;172.65;;;19.25;;
2762;SDS011;1389;51.490;7.338;2023-06-22T08:38:04;156.90;;;18.30;;
2762;SDS011;1389;51.490;7.338;2023-06-22T08:40:31;154.90;;;18.20;;
2762;SDS011;1389;51.490;7.338;2023-06-22T08:42:57;95.32;;;14.50;;
2762;SDS011;1389;51.490;7.338;2023-06-22T08:45:23;95.80;;;14.50;;
2762;SDS011;1389;51.490;7.338;2023-06-22T08:47:50;73.88;;;13.10;;
2762;SDS011;1389;51.490;7.338;2023-06-22T08:50:22;72.03;;;12.95;;
2762;SDS011;1389;51.490;7.338;2023-06-22T08:52:49;96.27;;;14.43;;
2762;SDS011;1389;51.490;7.338;2023-06-22T08:55:15;99.85;;;14.85;;
2762;SDS011;1389;51.490;7.338;2023-06-22T08:57:42;96.32;;;14.52;;
2762;SDS011;1389;51.490;7.338;2023-06-22T09:00:09;99.30;;;14.70;;
2762;SDS011;1389;51.490;7.338;2023-06-22T09:02:43;99.63;;;14.70;;
2762;SDS011;1389;51.490;7.338;2023-06-22T09:05:09;95.03;;;14.50;;
2762;SDS011;1389;51.490;7.338;2023-06-22T09:07:36;95.60;;;14.50;;
2762;SDS011;1389;51.490;7.338;2023-06-22T09:10:02;92.20;;;14.30;;
2762;SDS011;1389;51.490;7.338;2023-06-22T09:12:30;94.00;;;14.50;;
2762;SDS011;1389;51.490;7.338;2023-06-22T09:14:58;95.20;;;14.50;;
2762;SDS011;1389;51.490;7.338;2023-06-22T09:17:26;95.22;;;14.60;;
2762;SDS011;1389;51.490;7.338;2023-06-22T09:19:52;98.13;;;14.70;;
2762;SDS011;1389;51.490;7.338;2023-06-22T09:22:19;84.32;;;13.70;;
2762;SDS011;1389;51.490;7.338;2023-06-22T09:24:45;93.78;;;14.30;;
2762;SDS011;1389;51.490;7.338;2023-06-22T09:27:11;111.60;;;15.40;;
2762;SDS011;1389;51.490;7.338;2023-06-22T09:29:38;116.35;;;15.60;;
2762;SDS011;1389;51.490;7.338;2023-06-22T09:32:04;128.50;;;16.00;;
2762;SDS011;1389;51.490;7.338;2023-06-22T09:34:31;142.43;;;16.60;;
2762;SDS011;1389;51.490;7.338;2023-06-22T09:36:57;146.20;;;16.50;;
2762;SDS011;1389;51.490;7.338;2023-06-22T09:39:25;144.65;;;16.10;;
2762;SDS011;1389;51.490;7.338;2023-06-22T09:41:52;130.90;;;15.40;;
2762;SDS011;1389;51.490;7.338;2023-06-22T09:44:18;147.27;;;16.20;;
2762;SDS011;1389;51.490;7.338;2023-06-22T09:46:45;147.40;;;16.20;;
2762;SDS011;1389;51.490;7.338;2023-06-22T09:49:11;147.75;;;15.90;;
2762;SDS011;1389;51.490;7.338;2023-06-22T09:51:37;148.70;;;15.90;;
2762;SDS011;1389;51.490;7.338;2023-06-22T09:54:04;148.30;;;15.60;;
2762;SDS011;1389;51.490;7.338;2023-06-22T09:56:30;147.60;;;15.40;;
2762;SDS011;1389;51.490;7.338;2023-06-22T09:58:56;147.30;;;15.40;;
2762;SDS011;1389;51.490;7.338;2023-06-22T10:01:23;147.90;;;15.50;;
2762;SDS011;1389;51.490;7.338;2023-06-22T10:03:51;146.87;;;15.40;;
2762;SDS011;1389;51.490;7.338;2023-06-22T10:06:19;143.05;;;15.02;;
2762;SDS011;1389;51.490;7.338;2023-06-22T10:08:46;143.43;;;15.10;;
2762;SDS011;1389;51.490;7.338;2023-06-22T10:11:13;143.13;;;15.00;;
2762;SDS011;1389;51.490;7.338;2023-06-22T10:13:40;141.32;;;14.50;;
2762;SDS011;1389;51.490;7.338;2023-06-22T10:16:06;146.45;;;15.00;;
2762;SDS011;1389;51.490;7.338;2023-06-22T10:18:32;135.27;;;13.80;;
2762;SDS011;1389;51.490;7.338;2023-06-22T10:20:59;139.63;;;14.00;;
2762;SDS011;1389;51.490;7.338;2023-06-22T10:23:25;120.93;;;13.57;;
2762;SDS011;1389;51.490;7.338;2023-06-22T10:25:52;119.20;;;13.40;;
2762;SDS011;1389;51.490;7.338;2023-06-22T10:28:18;99.27;;;12.20;;
2762;SDS011;1389;51.490;7.338;2023-06-22T10:30:44;123.93;;;13.55;;
2762;SDS011;1389;51.490;7.338;2023-06-22T10:33:11;130.40;;;13.82;;
2762;SDS011;1389;51.490;7.338;2023-06-22T10:35:48;133.88;;;14.00;;
2762;SDS011;1389;51.490;7.338;2023-06-22T10:38:14;147.77;;;15.50;;
2762;SDS011;1389;51.490;7.338;2023-06-22T10:40:40;158.73;;;16.00;;
2762;SDS011;1389;51.490;7.338;2023-06-22T10:43:07;146.13;;;15.18;;
2762;SDS011;1389;51.490;7.338;2023-06-22T10:45:33;151.55;;;15.25;;
2762;SDS011;1389;51.490;7.338;2023-06-22T10:47:59;141.90;;;14.70;;
2762;SDS011;1389;51.490;7.338;2023-06-22T10:50:26;91.90;;;11.80;;
2762;SDS011;1389;51.490;7.338;2023-06-22T10:52:53;63.05;;;9.73;;
2762;SDS011;1389;51.490;7.338;2023-06-22T10:55:20;58.90;;;9.30;;
2762;SDS011;1389;51.490;7.338;2023-06-22T10:57:46;63.78;;;9.90;;
2762;SDS011;1389;51.490;7.338;2023-06-22T11:00:14;73.30;;;10.30;;
2762;SDS011;1389;51.490;7.338;2023-06-22T11:02:41;79.72;;;10.90;;
2762;SDS011;1389;51.490;7.338;2023-06-22T11:05:07;83.32;;;11.00;;
2762;SDS011;1389;51.490;7.338;2023-06-22T11:07:34;73.13;;;10.10;;
2762;SDS011;1389;51.490;7.338;2023-06-22T11:10:00;73.88;;;10.40;;
2762;SDS011;1389;51.490;7.338;2023-06-22T11:12:26;85.20;;;10.85;;
2762;SDS011;1389;51.490;7.338;2023-06-22T11:14:53;75.60;;;10.30;;
2762;SDS011;1389;51.490;7.338;2023-06-22T11:17:19;64.75;;;9.63;;
2762;SDS011;1389;51.490;7.338;2023-06-22T11:19:46;62.00;;;9.40;;
2762;SDS011;1389;51.490;7.338;2023-06-22T11:22:12;64.50;;;9.73;;
2762;SDS011;1389;51.490;7.338;2023-06-22T11:24:38;66.30;;;10.10;;
2762;SDS011;1389;51.490;7.338;2023-06-22T11:27:05;65.53;;;10.40;;
2762;SDS011;1389;51.490;7.338;2023-06-22T11:29:31;16.95;;;4.90;;
2762;SDS011;1389;51.490;7.338;2023-06-22T11:31:58;7.65;;;3.40;;
2762;SDS011;1389;51.490;7.338;2023-06-22T11:34:24;7.80;;;3.40;;
2762;SDS011;1389;51.490;7.338;2023-06-22T11:36:51;9.48;;;3.90;;
2762;SDS011;1389;51.490;7.338;2023-06-22T11:39:17;9.10;;;4.00;;
2762;SDS011;1389;51.490;7.338;2023-06-22T11:41:44;9.00;;;4.20;;
2762;SDS011;1389;51.490;7.338;2023-06-22T11:44:10;6.60;;;3.70;;
2762;SDS011;1389;51.490;7.338;2023-06-22T11:46:36;6.38;;;3.80;;
2762;SDS011;1389;51.490;7.338;2023-06-22T11:49:03;5.00;;;3.50;;
2762;SDS011;1389;51.490;7.338;2023-06-22T11:51:29;7.45;;;4.10;;
2762;SDS011;1389;51.490;7.338;2023-06-22T11:53:57;2.40;;;2.20;;
2762;SDS011;1389;51.490;7.338;2023-06-22T11:56:24;2.50;;;2.30;;
2762;SDS011;1389;51.490;7.338;2023-06-22T11:58:50;2.00;;;1.90;;
2762;SDS011;1389;51.490;7.338;2023-06-22T12:01:17;2.20;;;2.00;;
2762;SDS011;1389;51.490;7.338;2023-06-22T12:03:43;2.20;;;2.00;;
2762;SDS011;1389;51.490;7.338;2023-06-22T12:06:09;2.40;;;2.20;;
2762;SDS011;1389;51.490;7.338;2023-06-22T12:08:36;2.60;;;2.40;;
2762;SDS011;1389;51.490;7.338;2023-06-22T12:11:02;5.70;;;4.00;;
2762;SDS011;1389;51.490;7.338;2023-06-22T12:13:28;2.50;;;2.30;;
2762;SDS011;1389;51.490;7.338;2023-06-22T12:15:55;7.70;;;4.50;;
2762;SDS011;1389;51.490;7.338;2023-06-22T12:18:21;10.70;;;5.20;;
2762;SDS011;1389;51.490;7.338;2023-06-22T12:20:47;133.13;;;16.85;;
2762;SDS011;1389;51.490;7.338;2023-06-22T12:23:14;180.57;;;19.80;;
2762;SDS011;1389;51.490;7.338;2023-06-22T12:25:40;180.15;;;19.70;;
2762;SDS011;1389;51.490;7.338;2023-06-22T12:28:07;178.60;;;19.70;;
2762;SDS011;1389;51.490;7.338;2023-06-22T12:30:33;176.48;;;20.20;;
2762;SDS011;1389;51.490;7.338;2023-06-22T12:32:59;174.18;;;19.60;;
2762;SDS011;1389;51.490;7.338;2023-06-22T12:35:26;173.70;;;19.50;;
2762;SDS011;1389;51.490;7.338;2023-06-22T12:37:52;174.10;;;19.40;;
2762;SDS011;1389;51.490;7.338;2023-06-22T12:40:19;173.60;;;19.40;;
2762;SDS011;1389;51.490;7.338;2023-06-22T12:42:45;173.10;;;19.50;;
2762;SDS011;1389;51.490;7.338;2023-06-22T12:45:11;171.45;;;19.50;;
2762;SDS011;1389;51.490;7.338;2023-06-22T12:47:38;168.00;;;19.40;;
2762;SDS011;1389;51.490;7.338;2023-06-22T12:50:04;170.90;;;19.70;;
2762;SDS011;1389;51.490;7.338;2023-06-22T12:52:31;168.23;;;19.20;;
2762;SDS011;1389;51.490;7.338;2023-06-22T12:55:00;168.70;;;19.60;;
2762;SDS011;1389;51.490;7.338;2023-06-22T12:57:26;167.80;;;19.20;;
2762;SDS011;1389;51.490;7.338;2023-06-22T12:59:53;168.70;;;19.70;;
2762;SDS011;1389;51.490;7.338;2023-06-22T13:02:19;166.80;;;19.45;;
2762;SDS011;1389;51.490;7.338;2023-06-22T13:04:45;167.30;;;19.70;;
2762;SDS011;1389;51.490;7.338;2023-06-22T13:07:12;167.05;;;19.90;;
2762;SDS011;1389;51.490;7.338;2023-06-22T13:09:38;160.90;;;19.20;;
2762;SDS011;1389;51.490;7.338;2023-06-22T13:12:04;159.82;;;19.50;;
2762;SDS011;1389;51.490;7.338;2023-06-22T13:14:31;157.90;;;19.30;;
2762;SDS011;1389;51.490;7.338;2023-06-22T13:16:57;156.68;;;19.20;;
2762;SDS011;1389;51.490;7.338;2023-06-22T13:19:24;154.05;;;19.00;;
2762;SDS011;1389;51.490;7.338;2023-06-22T13:21:51;152.13;;;18.90;;
2762;SDS011;1389;51.490;7.338;2023-06-22T13:24:17;149.90;;;18.77;;
2762;SDS011;1389;51.490;7.338;2023-06-22T13:26:43;147.05;;;18.30;;
2762;SDS011;1389;51.490;7.338;2023-06-22T13:29:10;146.40;;;18.40;;
2762;SDS011;1389;51.490;7.338;2023-06-22T13:31:37;146.80;;;18.45;;
2762;SDS011;1389;51.490;7.338;2023-06-22T13:34:03;145.83;;;18.30;;
2762;SDS011;1389;51.490;7.338;2023-06-22T13:36:29;147.60;;;18.50;;
2762;SDS011;1389;51.490;7.338;2023-06-22T13:38:56;149.20;;;18.70;;
2762;SDS011;1389;51.490;7.338;2023-06-22T13:41:22;149.27;;;18.70;;
2762;SDS011;1389;51.490;7.338;2023-06-22T13:43:48;150.40;;;18.70;;
2762;SDS011;1389;51.490;7.338;2023-06-22T13:46:15;151.00;;;18.80;;
2762;SDS011;1389;51.490;7.338;2023-06-22T13:48:41;147.98;;;18.60;;
2762;SDS011;1389;51.490;7.338;2023-06-22T13:51:07;150.50;;;18.90;;
2762;SDS011;1389;51.490;7.338;2023-06-22T13:53:34;155.40;;;18.98;;
2762;SDS011;1389;51.490;7.338;2023-06-22T13:56:00;156.00;;;18.30;;
2762;SDS011;1389;51.490;7.338;2023-06-22T13:58:27;156.70;;;18.20;;
2762;SDS011;1389;51.490;7.338;2023-06-22T14:00:53;157.80;;;18.60;;
2762;SDS011;1389;51.490;7.338;2023-06-22T14:03:19;158.30;;;18.30;;
2762;SDS011;1389;51.490;7.338;2023-06-22T14:05:46;158.50;;;18.50;;
2762;SDS011;1389;51.490;7.338;2023-06-22T14:08:12;158.00;;;18.50;;
2762;SDS011;1389;51.490;7.338;2023-06-22T14:10:40;157.63;;;18.40;;
2762;SDS011;1389;51.490;7.338;2023-06-22T14:13:06;157.70;;;18.50;;
2762;SDS011;1389;51.490;7.338;2023-06-22T14:15:33;157.60;;;18.40;;
2762;SDS011;1389;51.490;7.338;2023-06-22T14:17:59;159.10;;;18.50;;
2762;SDS011;1389;51.490;7.338;2023-06-22T14:20:25;159.35;;;18.50;;
2762;SDS011;1389;51.490;7.338;2023-06-22T14:22:52;159.68;;;19.40;;
2762;SDS011;1389;51.490;7.338;2023-06-22T14:25:18;160.30;;;18.93;;
2762;SDS011;1389;51.490;7.338;2023-06-22T14:27:45;160.65;;;18.60;;
2762;SDS011;1389;51.490;7.338;2023-06-22T14:30:11;161.73;;;19.10;;
2762;SDS011;1389;51.490;7.338;2023-06-22T14:32:37;164.15;;;18.70;;
2762;SDS011;1389;51.490;7.338;2023-06-22T14:35:04;164.38;;;18.80;;
2762;SDS011;1389;51.490;7.338;2023-06-22T14:37:30;169.30;;;18.95;;
2762;SDS011;1389;51.490;7.338;2023-06-22T14:39:57;171.20;;;19.00;;
2762;SDS011;1389;51.490;7.338;2023-06-22T14:42:24;172.07;;;19.10;;
2762;SDS011;1389;51.490;7.338;2023-06-22T14:44:52;174.05;;;19.30;;
2762;SDS011;1389;51.490;7.338;2023-06-22T14:47:18;174.90;;;19.10;;
2762;SDS011;1389;51.490;7.338;2023-06-22T14:49:44;178.50;;;19.40;;